Time,TemperatureF,DewpointF,PressureIn,WindDirection,WindDirectionDegrees,WindSpeedMPH,WindSpeedGustMPH,Humidity,HourlyPrecipIn,Conditions,Clouds,dailyrainin,SoftwareType,DateUTC
2013-01-03 00:09:00,36.7,33.0,30.32,WNW,289,0.0,2.0,87,0.00,,,0.01,weatherlink.com 1.10,2013-01-03 06:09:00,
2013-01-03 00:24:00,36.6,33.0,30.32,WNW,288,0.0,1.0,87,0.00,,,0.01,weatherlink.com 1.10,2013-01-03 06:24:00,
2013-01-03 00:39:00,36.7,33.0,30.31,WNW,288,0.0,1.0,87,0.00,,,0.01,weatherlink.com 1.10,2013-01-03 06:39:00,
2013-01-03 00:54:00,36.6,33.0,30.31,WNW,299,1.0,2.0,87,0.00,,,0.01,weatherlink.com 1.10,2013-01-03 06:54:00,
2013-01-03 01:09:00,36.6,33.0,30.31,WNW,300,0.0,3.0,87,0.00,,,0.01,weatherlink.com 1.10,2013-01-03 07:09:00,
2013-01-03 01:24:00,36.6,33.0,30.32,NNE,20,0.0,2.0,86,0.00,,,0.01,weatherlink.com 1.10,2013-01-03 07:24:00,
2013-01-03 01:39:00,36.5,33.0,30.32,WNW,289,0.0,3.0,86,0.00,,,0.01,weatherlink.com 1.10,2013-01-03 07:39:00,
2013-01-03 01:54:00,36.3,33.0,30.32,WNW,291,0.0,1.0,87,0.00,,,0.01,weatherlink.com 1.10,2013-01-03 07:54:00,
2013-01-03 02:09:00,36.0,33.0,30.33,WNW,291,0.0,1.0,87,0.00,,,0.01,weatherlink.com 1.10,2013-01-03 08:09:00,
2013-01-03 02:24:00,35.6,32.0,30.33,WNW,291,0.0,0.0,87,0.00,,,0.01,weatherlink.com 1.10,2013-01-03 08:24:00,
2013-01-03 02:39:00,35.4,32.0,30.33,WNW,291,0.0,1.0,88,0.00,,,0.01,weatherlink.com 1.10,2013-01-03 08:39:00,
2013-01-03 02:55:00,34.9,32.0,30.34,WNW,291,0.0,0.0,88,0.00,,,0.01,weatherlink.com 1.10,2013-01-03 08:55:00,
2013-01-03 03:10:00,34.9,32.0,30.34,WNW,291,0.0,0.0,89,0.00,,,0.01,weatherlink.com 1.10,2013-01-03 09:10:00,
2013-01-03 03:25:00,34.3,31.0,30.34,WNW,291,0.0,0.0,89,0.00,,,0.01,weatherlink.com 1.10,2013-01-03 09:25:00,
2013-01-03 03:43:00,33.9,31.0,30.34,WNW,291,0.0,0.0,89,0.00,,,0.01,weatherlink.com 1.10,2013-01-03 09:43:00,
2013-01-03 03:55:00,33.7,31.0,30.34,WNW,291,0.0,0.0,90,0.00,,,0.01,weatherlink.com 1.10,2013-01-03 09:55:00,
2013-01-03 04:10:00,33.1,31.0,30.33,WNW,291,0.0,0.0,90,0.00,,,0.01,weatherlink.com 1.10,2013-01-03 10:10:00,
2013-01-03 04:25:00,32.9,30.0,30.34,WNW,291,0.0,1.0,90,0.00,,,0.01,weatherlink.com 1.10,2013-01-03 10:25:00,
2013-01-03 04:40:00,32.2,30.0,30.33,WNW,291,0.0,0.0,90,0.00,,,0.01,weatherlink.com 1.10,2013-01-03 10:40:00,
2013-01-03 04:55:00,31.9,29.0,30.34,WNW,291,0.0,0.0,90,0.00,,,0.01,weatherlink.com 1.10,2013-01-03 10:55:00,
2013-01-03 05:10:00,31.3,29.0,30.34,WNW,291,0.0,1.0,90,0.01,,,0.02,weatherlink.com 1.10,2013-01-03 11:10:00,
2013-01-03 05:25:00,30.9,28.0,30.35,WNW,291,0.0,1.0,90,0.01,,,0.02,weatherlink.com 1.10,2013-01-03 11:25:00,
2013-01-03 05:40:00,30.8,29.0,30.35,WNW,291,0.0,0.0,91,0.01,,,0.02,weatherlink.com 1.10,2013-01-03 11:40:00,
2013-01-03 05:55:00,30.6,28.0,30.36,WNW,291,0.0,0.0,91,0.01,,,0.02,weatherlink.com 1.10,2013-01-03 11:55:00,
2013-01-03 06:10:00,30.1,28.0,30.36,WNW,291,0.0,0.0,91,0.00,,,0.02,weatherlink.com 1.10,2013-01-03 12:10:00,
2013-01-03 06:25:00,29.8,28.0,30.36,WNW,291,0.0,2.0,91,0.00,,,0.02,weatherlink.com 1.10,2013-01-03 12:25:00,
2013-01-03 06:40:00,29.9,28.0,30.37,WNW,291,0.0,1.0,91,0.00,,,0.02,weatherlink.com 1.10,2013-01-03 12:40:00,
2013-01-03 06:55:00,29.9,28.0,30.37,WNW,291,0.0,0.0,91,0.00,,,0.02,weatherlink.com 1.10,2013-01-03 12:55:00,
2013-01-03 07:10:00,29.9,28.0,30.37,WNW,290,0.0,0.0,91,0.00,,,0.02,weatherlink.com 1.10,2013-01-03 13:10:00,
2013-01-03 07:25:00,30.3,28.0,30.38,WNW,291,0.0,1.0,91,0.00,,,0.02,weatherlink.com 1.10,2013-01-03 13:25:00,
2013-01-03 07:40:00,30.2,28.0,30.38,WNW,292,0.0,0.0,91,0.00,,,0.02,weatherlink.com 1.10,2013-01-03 13:40:00,
2013-01-03 07:55:00,30.3,28.0,30.39,WNW,292,0.0,1.0,91,0.00,,,0.02,weatherlink.com 1.10,2013-01-03 13:55:00,
2013-01-03 08:10:00,30.7,28.0,30.40,WNW,292,0.0,0.0,91,0.00,,,0.02,weatherlink.com 1.10,2013-01-03 14:10:00,
2013-01-03 08:25:00,31.6,29.0,30.41,WNW,293,0.0,3.0,91,0.00,,,0.02,weatherlink.com 1.10,2013-01-03 14:25:00,
2013-01-03 08:40:00,32.5,30.0,30.41,WNW,293,0.0,3.0,91,0.00,,,0.02,weatherlink.com 1.10,2013-01-03 14:40:00,
2013-01-03 08:55:00,34.0,32.0,30.42,West,263,0.0,5.0,91,0.00,,,0.02,weatherlink.com 1.10,2013-01-03 14:55:00,
2013-01-03 09:10:00,35.6,33.0,30.42,WNW,298,3.0,5.0,90,0.00,,,0.00,weatherlink.com 1.10,2013-01-03 15:10:00,
2013-01-03 09:25:00,37.3,34.0,30.42,NW,320,0.0,6.0,86,0.00,,,0.00,weatherlink.com 1.10,2013-01-03 15:25:00,
2013-01-03 09:40:00,39.1,34.0,30.43,WNW,282,2.0,6.0,81,0.00,,,0.00,weatherlink.com 1.10,2013-01-03 15:40:00,
2013-01-03 09:55:00,39.8,34.0,30.43,West,280,1.0,5.0,80,0.01,,,0.01,weatherlink.com 1.10,2013-01-03 15:55:00,
2013-01-03 10:10:00,41.1,34.0,30.43,West,278,1.0,5.0,77,0.02,,,0.02,weatherlink.com 1.10,2013-01-03 16:10:00,
2013-01-03 10:26:00,41.9,33.0,30.42,WNW,299,7.0,8.0,72,0.02,,,0.02,weatherlink.com 1.10,2013-01-03 16:26:00,
2013-01-03 10:41:00,42.6,34.0,30.42,WNW,285,2.0,5.0,72,0.02,,,0.02,weatherlink.com 1.10,2013-01-03 16:41:00,
2013-01-03 10:56:00,43.7,34.0,30.42,WNW,296,0.0,5.0,69,0.01,,,0.02,weatherlink.com 1.10,2013-01-03 16:56:00,
2013-01-03 11:11:00,45.0,35.0,30.41,NNW,328,2.0,10.0,67,0.00,,,0.02,weatherlink.com 1.10,2013-01-03 17:11:00,
2013-01-03 11:26:00,45.9,34.0,30.40,WNW,292,4.0,7.0,63,0.00,,,0.02,weatherlink.com 1.10,2013-01-03 17:26:00,
2013-01-03 11:41:00,46.6,36.0,30.39,SSE,161,0.0,9.0,66,0.01,,,0.03,weatherlink.com 1.10,2013-01-03 17:41:00,
2013-01-03 11:56:00,47.6,35.0,30.39,SSE,157,1.0,7.0,62,0.01,,,0.03,weatherlink.com 1.10,2013-01-03 17:56:00,
2013-01-03 12:11:00,48.1,35.0,30.37,SE,124,3.0,8.0,61,0.01,,,0.03,weatherlink.com 1.10,2013-01-03 18:11:00,
2013-01-03 12:26:00,48.8,34.0,30.36,NNE,12,2.0,6.0,56,0.01,,,0.03,weatherlink.com 1.10,2013-01-03 18:26:00,
2013-01-03 12:41:00,49.6,34.0,30.35,NW,313,5.0,10.0,55,0.00,,,0.03,weatherlink.com 1.10,2013-01-03 18:41:00,
2013-01-03 12:56:00,49.8,34.0,30.35,WSW,248,0.0,5.0,55,0.00,,,0.03,weatherlink.com 1.10,2013-01-03 18:56:00,
2013-01-03 13:11:00,50.8,33.0,30.34,WNW,292,8.0,9.0,50,0.00,,,0.03,weatherlink.com 1.10,2013-01-03 19:11:00,
2013-01-03 13:56:00,51.7,32.0,30.33,NNW,345,4.0,7.0,47,0.01,,,0.04,weatherlink.com 1.10,2013-01-03 19:56:00,
2013-01-03 14:11:00,52.1,33.0,30.33,West,262,3.0,5.0,49,0.01,,,0.04,weatherlink.com 1.10,2013-01-03 20:11:00,
2013-01-03 14:26:00,52.6,32.0,30.33,WNW,283,5.0,5.0,46,0.01,,,0.04,weatherlink.com 1.10,2013-01-03 20:26:00,
2013-01-03 14:41:00,52.0,33.0,30.34,WSW,244,0.0,8.0,49,0.01,,,0.04,weatherlink.com 1.10,2013-01-03 20:41:00,
2013-01-03 14:56:00,52.3,33.0,30.34,West,267,5.0,9.0,48,0.00,,,0.04,weatherlink.com 1.10,2013-01-03 20:56:00,
2013-01-03 15:11:00,51.5,32.0,30.34,WNW,297,0.0,7.0,47,0.00,,,0.04,weatherlink.com 1.10,2013-01-03 21:11:00,
2013-01-03 15:26:00,51.2,32.0,30.34,WNW,297,4.0,4.0,49,0.00,,,0.04,weatherlink.com 1.10,2013-01-03 21:26:00,
2013-01-03 15:55:00,50.7,33.0,30.37,West,271,0.0,7.0,52,0.00,,,0.04,weatherlink.com 1.10,2013-01-03 21:55:00,
2013-01-03 16:11:00,50.4,34.0,30.36,NNW,345,0.0,2.0,54,0.00,,,0.04,weatherlink.com 1.10,2013-01-03 22:11:00,
2013-01-03 16:26:00,50.1,35.0,30.37,WNW,285,1.0,5.0,56,0.00,,,0.04,weatherlink.com 1.10,2013-01-03 22:26:00,
2013-01-03 16:41:00,49.7,35.0,30.37,West,276,0.0,2.0,57,0.00,,,0.04,weatherlink.com 1.10,2013-01-03 22:41:00,
2013-01-03 16:56:00,49.2,36.0,30.37,West,276,0.0,2.0,60,0.00,,,0.04,weatherlink.com 1.10,2013-01-03 22:56:00,
2013-01-03 17:11:00,48.7,36.0,30.37,West,276,0.0,2.0,62,0.00,,,0.04,weatherlink.com 1.10,2013-01-03 23:11:00,
2013-01-03 17:26:00,48.3,37.0,30.37,NNE,24,0.0,1.0,65,0.00,,,0.04,weatherlink.com 1.10,2013-01-03 23:26:00,
2013-01-03 17:41:00,47.7,38.0,30.38,NNE,24,0.0,0.0,68,0.00,,,0.04,weatherlink.com 1.10,2013-01-03 23:41:00,
2013-01-03 17:56:00,47.3,38.0,30.38,NNE,24,0.0,1.0,70,0.00,,,0.04,weatherlink.com 1.10,2013-01-03 23:56:00,
2013-01-03 18:11:00,47.2,37.0,30.40,WNW,299,0.0,0.0,67,0.00,,,0.04,weatherlink.com 1.10,2013-01-04 00:11:00,
2013-01-03 18:26:00,47.0,36.0,30.40,WNW,299,0.0,1.0,66,0.00,,,0.04,weatherlink.com 1.10,2013-01-04 00:26:00,
2013-01-03 18:41:00,46.7,37.0,30.40,WNW,299,0.0,0.0,68,0.00,,,0.04,weatherlink.com 1.10,2013-01-04 00:41:00,
2013-01-03 18:56:00,46.4,37.0,30.40,WNW,299,0.0,0.0,69,0.00,,,0.04,weatherlink.com 1.10,2013-01-04 00:56:00,
2013-01-03 19:11:00,45.8,38.0,30.40,WNW,299,0.0,0.0,75,0.00,,,0.04,weatherlink.com 1.10,2013-01-04 01:11:00,
2013-01-03 19:26:00,45.5,38.0,30.41,WNW,299,0.0,1.0,75,0.00,,,0.04,weatherlink.com 1.10,2013-01-04 01:26:00,
2013-01-03 19:41:00,45.6,38.0,30.41,WNW,299,0.0,0.0,76,0.00,,,0.04,weatherlink.com 1.10,2013-01-04 01:41:00,
2013-01-03 19:56:00,45.7,38.0,30.42,WNW,299,0.0,1.0,75,0.00,,,0.04,weatherlink.com 1.10,2013-01-04 01:56:00,
2013-01-03 20:11:00,45.5,38.0,30.42,WNW,299,0.0,0.0,76,0.01,,,0.05,weatherlink.com 1.10,2013-01-04 02:11:00,
2013-01-03 20:26:00,45.1,39.0,30.42,WNW,299,0.0,0.0,80,0.01,,,0.05,weatherlink.com 1.10,2013-01-04 02:26:00,
2013-01-03 20:41:00,45.0,39.0,30.42,WNW,299,0.0,0.0,80,0.01,,,0.05,weatherlink.com 1.10,2013-01-04 02:41:00,
2013-01-03 20:56:00,44.7,39.0,30.42,WNW,299,0.0,0.0,80,0.01,,,0.05,weatherlink.com 1.10,2013-01-04 02:56:00,
2013-01-03 21:11:00,44.7,39.0,30.42,WNW,299,0.0,0.0,80,0.00,,,0.05,weatherlink.com 1.10,2013-01-04 03:11:00,
2013-01-03 21:26:00,44.6,39.0,30.42,WNW,299,0.0,1.0,81,0.00,,,0.05,weatherlink.com 1.10,2013-01-04 03:26:00,
2013-01-03 21:41:00,44.6,39.0,30.42,West,276,0.0,2.0,80,0.00,,,0.05,weatherlink.com 1.10,2013-01-04 03:41:00,
2013-01-03 21:56:00,44.5,38.0,30.43,West,276,0.0,0.0,79,0.00,,,0.05,weatherlink.com 1.10,2013-01-04 03:56:00,
2013-01-03 22:11:00,44.2,39.0,30.43,West,276,0.0,1.0,81,0.00,,,0.05,weatherlink.com 1.10,2013-01-04 04:11:00,
2013-01-03 22:27:00,44.1,38.0,30.42,West,276,0.0,2.0,80,0.00,,,0.05,weatherlink.com 1.10,2013-01-04 04:27:00,
2013-01-03 22:42:00,43.9,38.0,30.41,West,276,0.0,1.0,81,0.00,,,0.05,weatherlink.com 1.10,2013-01-04 04:42:00,
2013-01-03 22:57:00,43.8,37.0,30.42,ESE,121,0.0,3.0,76,0.00,,,0.05,weatherlink.com 1.10,2013-01-04 04:57:00,
2013-01-03 23:11:00,43.9,37.0,30.41,NNW,333,0.0,2.0,76,0.00,,,0.05,weatherlink.com 1.10,2013-01-04 05:11:00,
2013-01-03 23:27:00,43.8,36.0,30.41,WSW,251,0.0,2.0,73,0.00,,,0.05,weatherlink.com 1.10,2013-01-04 05:27:00,
2013-01-03 23:42:00,43.9,36.0,30.40,West,276,0.0,4.0,73,0.00,,,0.05,weatherlink.com 1.10,2013-01-04 05:42:00,
2013-01-03 23:57:00,43.6,35.0,30.40,WNW,297,0.0,3.0,71,0.00,,,0.05,weatherlink.com 1.10,2013-01-04 05:57:00,